sensor_id;sensor_type;location;lat;lon;timestamp;pressure;altitude;pressure_sealevel;temperature;humidity
23417;BME280;11881;42.432;25.632;2024-01-16T00:02:01;97866.44;;;3.44;100.00
23417;BME280;11881;42.432;25.632;2024-01-16T00:04:26;97863.28;;;3.50;100.00
23417;BME280;11881;42.432;25.632;2024-01-16T00:06:55;97869.84;;;3.56;100.00
23417;BME280;11881;42.432;25.632;2024-01-16T00:09:20;97869.63;;;3.68;100.00
23417;BME280;11881;42.432;25.632;2024-01-16T00:11:45;97855.25;;;3.72;100.00
23417;BME280;11881;42.432;25.632;2024-01-16T00:14:11;97863.34;;;3.60;100.00
23417;BME280;11881;42.432;25.632;2024-01-16T00:16:46;97864.22;;;3.70;100.00
23417;BME280;11881;42.432;25.632;2024-01-16T00:19:13;97862.09;;;3.64;100.00
23417;BME280;11881;42.432;25.632;2024-01-16T00:21:40;97862.16;;;3.73;100.00
23417;BME280;11881;42.432;25.632;2024-01-16T00:24:05;97857.91;;;3.82;100.00
23417;BME280;11881;42.432;25.632;2024-01-16T00:26:32;97869.47;;;3.91;100.00
23417;BME280;11881;42.432;25.632;2024-01-16T00:28:57;97865.06;;;4.01;100.00
23417;BME280;11881;42.432;25.632;2024-01-16T00:31:23;97862.59;;;4.09;100.00
23417;BME280;11881;42.432;25.632;2024-01-16T00:33:49;97869.28;;;4.13;100.00
23417;BME280;11881;42.432;25.632;2024-01-16T00:36:14;97867.97;;;3.98;100.00
23417;BME280;11881;42.432;25.632;2024-01-16T00:38:40;97862.31;;;4.03;100.00
23417;BME280;11881;42.432;25.632;2024-01-16T00:41:05;97864.25;;;4.00;100.00
23417;BME280;11881;42.432;25.632;2024-01-16T00:43:32;97856.75;;;4.06;100.00
23417;BME280;11881;42.432;25.632;2024-01-16T00:45:58;97845.13;;;4.08;100.00
23417;BME280;11881;42.432;25.632;2024-01-16T00:48:24;97839.78;;;3.89;100.00
23417;BME280;11881;42.432;25.632;2024-01-16T00:50:49;97831.44;;;3.84;100.00
23417;BME280;11881;42.432;25.632;2024-01-16T00:53:18;97840.19;;;3.84;100.00
23417;BME280;11881;42.432;25.632;2024-01-16T00:55:43;97851.41;;;3.86;100.00
23417;BME280;11881;42.432;25.632;2024-01-16T00:58:09;97838.19;;;3.77;100.00
23417;BME280;11881;42.432;25.632;2024-01-16T01:00:34;97844.47;;;3.85;100.00
23417;BME280;11881;42.432;25.632;2024-01-16T01:03:03;97847.66;;;3.79;100.00
23417;BME280;11881;42.432;25.632;2024-01-16T01:05:29;97834.72;;;3.76;100.00
23417;BME280;11881;42.432;25.632;2024-01-16T01:07:55;97819.97;;;3.64;100.00
23417;BME280;11881;42.432;25.632;2024-01-16T01:10:21;97831.16;;;3.77;100.00
23417;BME280;11881;42.432;25.632;2024-01-16T01:12:46;97828.63;;;3.76;100.00
23417;BME280;11881;42.432;25.632;2024-01-16T01:15:12;97825.88;;;3.77;100.00
23417;BME280;11881;42.432;25.632;2024-01-16T01:17:39;97825.34;;;3.83;100.00
23417;BME280;11881;42.432;25.632;2024-01-16T01:20:06;97829.28;;;3.68;100.00
23417;BME280;11881;42.432;25.632;2024-01-16T01:22:32;97832.66;;;3.80;100.00
23417;BME280;11881;42.432;25.632;2024-01-16T01:24:57;97829.97;;;3.70;100.00
23417;BME280;11881;42.432;25.632;2024-01-16T01:27:23;97822.75;;;3.62;100.00
23417;BME280;11881;42.432;25.632;2024-01-16T01:29:48;97818.38;;;3.72;100.00
23417;BME280;11881;42.432;25.632;2024-01-16T01:32:14;97819.88;;;3.75;100.00
23417;BME280;11881;42.432;25.632;2024-01-16T01:34:41;97810.47;;;3.72;100.00
23417;BME280;11881;42.432;25.632;2024-01-16T01:37:07;97816.19;;;3.78;100.00
23417;BME280;11881;42.432;25.632;2024-01-16T01:39:33;97805.31;;;3.71;100.00
23417;BME280;11881;42.432;25.632;2024-01-16T01:41:58;97799.88;;;3.63;100.00
23417;BME280;11881;42.432;25.632;2024-01-16T01:44:23;97792.25;;;3.60;100.00
23417;BME280;11881;42.432;25.632;2024-01-16T01:46:50;97792.69;;;3.65;100.00
23417;BME280;11881;42.432;25.632;2024-01-16T01:49:16;97787.00;;;3.60;100.00
23417;BME280;11881;42.432;25.632;2024-01-16T01:51:42;97785.63;;;3.65;100.00
23417;BME280;11881;42.432;25.632;2024-01-16T01:54:08;97795.22;;;3.76;100.00
23417;BME280;11881;42.432;25.632;2024-01-16T01:56:35;97792.47;;;3.78;100.00
23417;BME280;11881;42.432;25.632;2024-01-16T01:59:01;97789.94;;;3.76;100.00
23417;BME280;11881;42.432;25.632;2024-01-16T02:01:29;97794.38;;;3.76;100.00
23417;BME280;11881;42.432;25.632;2024-01-16T02:03:55;97786.78;;;3.72;100.00
23417;BME280;11881;42.432;25.632;2024-01-16T02:06:22;97785.34;;;3.68;100.00
23417;BME280;11881;42.432;25.632;2024-01-16T02:08:48;97781.88;;;3.68;100.00
23417;BME280;11881;42.432;25.632;2024-01-16T02:11:14;97790.38;;;3.71;100.00
23417;BME280;11881;42.432;25.632;2024-01-16T02:13:40;97793.41;;;3.77;100.00
23417;BME280;11881;42.432;25.632;2024-01-16T02:16:20;97792.88;;;3.73;100.00
23417;BME280;11881;42.432;25.632;2024-01-16T02:18:46;97776.63;;;3.68;100.00
23417;BME280;11881;42.432;25.632;2024-01-16T02:21:12;97787.09;;;3.58;100.00
23417;BME280;11881;42.432;25.632;2024-01-16T02:23:41;97789.72;;;3.49;100.00
23417;BME280;11881;42.432;25.632;2024-01-16T02:26:07;97802.34;;;3.55;100.00
23417;BME280;11881;42.432;25.632;2024-01-16T02:28:33;97801.00;;;3.60;100.00
23417;BME280;11881;42.432;25.632;2024-01-16T02:30:58;97789.19;;;3.55;100.00
23417;BME280;11881;42.432;25.632;2024-01-16T02:33:24;97800.16;;;3.60;100.00
23417;BME280;11881;42.432;25.632;2024-01-16T02:35:49;97803.63;;;3.60;100.00
23417;BME280;11881;42.432;25.632;2024-01-16T02:38:15;97803.72;;;3.59;100.00
23417;BME280;11881;42.432;25.632;2024-01-16T02:40:40;97808.91;;;3.39;100.00
23417;BME280;11881;42.432;25.632;2024-01-16T02:43:06;97807.72;;;3.53;100.00
23417;BME280;11881;42.432;25.632;2024-01-16T02:45:32;97804.41;;;3.51;100.00
23417;BME280;11881;42.432;25.632;2024-01-16T02:47:58;97808.38;;;3.45;100.00
23417;BME280;11881;42.432;25.632;2024-01-16T02:50:23;97812.28;;;3.51;100.00
23417;BME280;11881;42.432;25.632;2024-01-16T02:52:48;97816.78;;;3.60;100.00
23417;BME280;11881;42.432;25.632;2024-01-16T02:55:14;97822.59;;;3.54;100.00
23417;BME280;11881;42.432;25.632;2024-01-16T02:57:40;97827.41;;;3.49;100.00
23417;BME280;11881;42.432;25.632;2024-01-16T03:00:06;97827.94;;;3.53;100.00
23417;BME280;11881;42.432;25.632;2024-01-16T03:02:33;97841.13;;;3.53;100.00
23417;BME280;11881;42.432;25.632;2024-01-16T03:04:58;97835.75;;;3.54;100.00
23417;BME280;11881;42.432;25.632;2024-01-16T03:07:24;97833.28;;;3.62;100.00
23417;BME280;11881;42.432;25.632;2024-01-16T03:09:49;97831.91;;;3.37;100.00
23417;BME280;11881;42.432;25.632;2024-01-16T03:12:15;97821.53;;;3.45;100.00
23417;BME280;11881;42.432;25.632;2024-01-16T03:14:41;97819.50;;;3.49;100.00
23417;BME280;11881;42.432;25.632;2024-01-16T03:17:06;97827.50;;;3.47;100.00
23417;BME280;11881;42.432;25.632;2024-01-16T03:19:32;97828.69;;;3.55;100.00
23417;BME280;11881;42.432;25.632;2024-01-16T03:21:58;97834.25;;;3.61;100.00
23417;BME280;11881;42.432;25.632;2024-01-16T03:24:23;97833.75;;;3.46;100.00
23417;BME280;11881;42.432;25.632;2024-01-16T03:26:49;97842.78;;;3.54;100.00
23417;BME280;11881;42.432;25.632;2024-01-16T03:29:14;97843.94;;;3.61;100.00
23417;BME280;11881;42.432;25.632;2024-01-16T03:31:40;97848.69;;;3.67;100.00
23417;BME280;11881;42.432;25.632;2024-01-16T03:34:06;97848.88;;;3.75;100.00
23417;BME280;11881;42.432;25.632;2024-01-16T03:36:34;97849.13;;;3.72;100.00
23417;BME280;11881;42.432;25.632;2024-01-16T03:38:59;97851.63;;;3.73;100.00
23417;BME280;11881;42.432;25.632;2024-01-16T03:41:24;97843.34;;;3.78;100.00
23417;BME280;11881;42.432;25.632;2024-01-16T03:43:50;97839.06;;;3.87;100.00
23417;BME280;11881;42.432;25.632;2024-01-16T03:46:15;97843.78;;;3.83;100.00
23417;BME280;11881;42.432;25.632;2024-01-16T03:48:42;97846.97;;;3.87;100.00
23417;BME280;11881;42.432;25.632;2024-01-16T03:51:07;97846.16;;;3.86;100.00
23417;BME280;11881;42.432;25.632;2024-01-16T03:53:33;97843.50;;;3.86;100.00
23417;BME280;11881;42.432;25.632;2024-01-16T03:55:58;97847.28;;;3.63;100.00
23417;BME280;11881;42.432;25.632;2024-01-16T03:58:24;97857.06;;;3.82;100.00
23417;BME280;11881;42.432;25.632;2024-01-16T04:00:49;97851.94;;;3.80;100.00
23417;BME280;11881;42.432;25.632;2024-01-16T04:03:16;97858.13;;;3.69;100.00
23417;BME280;11881;42.432;25.632;2024-01-16T04:05:42;97856.53;;;3.78;100.00
23417;BME280;11881;42.432;25.632;2024-01-16T04:08:07;97860.53;;;3.82;100.00
23417;BME280;11881;42.432;25.632;2024-01-16T04:10:33;97863.88;;;3.84;100.00
23417;BME280;11881;42.432;25.632;2024-01-16T04:13:02;97876.69;;;3.89;100.00
23417;BME280;11881;42.432;25.632;2024-01-16T04:15:27;97886.78;;;3.93;100.00
23417;BME280;11881;42.432;25.632;2024-01-16T04:17:54;97889.25;;;3.85;100.00
23417;BME280;11881;42.432;25.632;2024-01-16T04:20:19;97895.94;;;3.89;100.00
23417;BME280;11881;42.432;25.632;2024-01-16T04:22:45;97903.31;;;3.95;100.00
23417;BME280;11881;42.432;25.632;2024-01-16T04:25:11;97909.38;;;3.86;100.00
23417;BME280;11881;42.432;25.632;2024-01-16T04:27:36;97910.09;;;3.67;100.00
23417;BME280;11881;42.432;25.632;2024-01-16T04:30:02;97917.03;;;3.68;100.00
23417;BME280;11881;42.432;25.632;2024-01-16T04:32:28;97916.97;;;3.80;100.00
23417;BME280;11881;42.432;25.632;2024-01-16T04:34:53;97918.38;;;3.84;100.00
23417;BME280;11881;42.432;25.632;2024-01-16T04:37:19;97917.03;;;3.89;100.00
23417;BME280;11881;42.432;25.632;2024-01-16T04:39:44;97925.47;;;3.93;100.00
23417;BME280;11881;42.432;25.632;2024-01-16T04:42:10;97947.00;;;3.98;100.00
23417;BME280;11881;42.432;25.632;2024-01-16T04:44:37;97952.41;;;3.76;100.00
23417;BME280;11881;42.432;25.632;2024-01-16T04:47:02;97969.63;;;3.59;100.00
23417;BME280;11881;42.432;25.632;2024-01-16T04:49:27;97975.03;;;3.78;100.00
23417;BME280;11881;42.432;25.632;2024-01-16T04:51:53;97978.63;;;3.98;100.00
23417;BME280;11881;42.432;25.632;2024-01-16T04:54:19;97979.91;;;4.04;100.00
23417;BME280;11881;42.432;25.632;2024-01-16T04:56:44;97977.34;;;3.92;100.00
23417;BME280;11881;42.432;25.632;2024-01-16T04:59:10;97994.09;;;3.70;100.00
23417;BME280;11881;42.432;25.632;2024-01-16T05:01:36;97994.69;;;3.95;100.00
23417;BME280;11881;42.432;25.632;2024-01-16T05:04:01;98013.19;;;4.05;100.00
23417;BME280;11881;42.432;25.632;2024-01-16T05:06:27;98008.44;;;3.98;100.00
23417;BME280;11881;42.432;25.632;2024-01-16T05:08:52;98009.16;;;3.80;100.00
23417;BME280;11881;42.432;25.632;2024-01-16T05:11:18;98025.28;;;3.86;100.00
23417;BME280;11881;42.432;25.632;2024-01-16T05:13:44;98026.09;;;3.87;100.00
23417;BME280;11881;42.432;25.632;2024-01-16T05:16:09;98030.41;;;3.88;100.00
23417;BME280;11881;42.432;25.632;2024-01-16T05:18:35;98026.69;;;3.90;100.00
23417;BME280;11881;42.432;25.632;2024-01-16T05:21:00;98031.97;;;3.90;100.00
23417;BME280;11881;42.432;25.632;2024-01-16T05:23:27;98037.06;;;3.71;100.00
23417;BME280;11881;42.432;25.632;2024-01-16T05:25:53;98028.03;;;3.85;100.00
23417;BME280;11881;42.432;25.632;2024-01-16T05:28:18;98027.41;;;3.92;100.00
23417;BME280;11881;42.432;25.632;2024-01-16T05:30:44;98037.09;;;3.92;100.00
23417;BME280;11881;42.432;25.632;2024-01-16T05:33:09;98047.38;;;3.74;100.00
23417;BME280;11881;42.432;25.632;2024-01-16T05:35:35;98046.75;;;3.70;100.00
23417;BME280;11881;42.432;25.632;2024-01-16T05:38:00;98050.34;;;3.49;100.00
23417;BME280;11881;42.432;25.632;2024-01-16T05:40:26;98058.75;;;3.42;100.00
23417;BME280;11881;42.432;25.632;2024-01-16T05:42:52;98063.25;;;3.52;100.00
23417;BME280;11881;42.432;25.632;2024-01-16T05:45:18;98063.84;;;3.55;100.00
23417;BME280;11881;42.432;25.632;2024-01-16T05:47:43;98072.19;;;3.60;100.00
23417;BME280;11881;42.432;25.632;2024-01-16T05:50:09;98083.69;;;3.59;100.00
23417;BME280;11881;42.432;25.632;2024-01-16T05:52:35;98093.13;;;3.62;100.00
23417;BME280;11881;42.432;25.632;2024-01-16T05:55:01;98114.56;;;3.57;100.00
23417;BME280;11881;42.432;25.632;2024-01-16T05:57:28;98124.03;;;3.92;100.00
23417;BME280;11881;42.432;25.632;2024-01-16T05:59:57;98127.94;;;4.09;100.00
23417;BME280;11881;42.432;25.632;2024-01-16T06:02:22;98137.06;;;4.25;100.00
23417;BME280;11881;42.432;25.632;2024-01-16T06:04:48;98149.72;;;4.11;100.00
23417;BME280;11881;42.432;25.632;2024-01-16T06:07:13;98155.44;;;4.16;100.00
23417;BME280;11881;42.432;25.632;2024-01-16T06:09:39;98167.94;;;4.35;100.00
23417;BME280;11881;42.432;25.632;2024-01-16T06:12:08;98160.94;;;4.24;100.00
23417;BME280;11881;42.432;25.632;2024-01-16T06:14:34;98174.13;;;4.24;100.00
23417;BME280;11881;42.432;25.632;2024-01-16T06:17:00;98168.81;;;4.35;100.00
23417;BME280;11881;42.432;25.632;2024-01-16T06:19:25;98177.66;;;4.34;100.00
23417;BME280;11881;42.432;25.632;2024-01-16T06:21:51;98183.28;;;4.41;100.00
23417;BME280;11881;42.432;25.632;2024-01-16T06:24:16;98184.88;;;4.53;100.00
23417;BME280;11881;42.432;25.632;2024-01-16T06:26:42;98197.94;;;4.54;100.00
23417;BME280;11881;42.432;25.632;2024-01-16T06:29:07;98199.00;;;4.52;100.00
23417;BME280;11881;42.432;25.632;2024-01-16T06:31:33;98200.19;;;4.59;100.00
23417;BME280;11881;42.432;25.632;2024-01-16T06:33:59;98199.22;;;4.60;100.00
23417;BME280;11881;42.432;25.632;2024-01-16T06:36:24;98194.50;;;4.64;100.00
23417;BME280;11881;42.432;25.632;2024-01-16T06:38:50;98197.09;;;4.54;100.00
23417;BME280;11881;42.432;25.632;2024-01-16T06:41:15;98202.97;;;4.78;100.00
23417;BME280;11881;42.432;25.632;2024-01-16T06:43:41;98198.34;;;4.71;100.00
23417;BME280;11881;42.432;25.632;2024-01-16T06:46:06;98204.31;;;4.73;100.00
23417;BME280;11881;42.432;25.632;2024-01-16T06:48:32;98215.50;;;4.86;100.00
23417;BME280;11881;42.432;25.632;2024-01-16T06:50:57;98208.16;;;5.41;100.00
23417;BME280;11881;42.432;25.632;2024-01-16T06:53:23;98207.53;;;6.08;100.00
23417;BME280;11881;42.432;25.632;2024-01-16T06:55:48;98201.28;;;6.77;100.00
23417;BME280;11881;42.432;25.632;2024-01-16T06:58:14;98197.38;;;6.91;100.00
23417;BME280;11881;42.432;25.632;2024-01-16T07:00:40;98193.28;;;7.06;100.00
23417;BME280;11881;42.432;25.632;2024-01-16T07:03:07;98201.88;;;7.18;100.00
23417;BME280;11881;42.432;25.632;2024-01-16T07:05:32;98208.00;;;7.28;100.00
23417;BME280;11881;42.432;25.632;2024-01-16T07:07:58;98214.78;;;7.40;100.00
23417;BME280;11881;42.432;25.632;2024-01-16T07:10:24;98208.31;;;7.53;100.00
23417;BME280;11881;42.432;25.632;2024-01-16T07:12:49;98207.25;;;7.45;100.00
23417;BME280;11881;42.432;25.632;2024-01-16T07:15:17;98217.09;;;7.53;100.00
23417;BME280;11881;42.432;25.632;2024-01-16T07:17:42;98234.13;;;7.60;98.15
23417;BME280;11881;42.432;25.632;2024-01-16T07:20:08;98230.06;;;7.66;98.17
23417;BME280;11881;42.432;25.632;2024-01-16T07:22:34;98248.16;;;7.98;95.51
23417;BME280;11881;42.432;25.632;2024-01-16T07:25:00;98249.97;;;8.25;93.87
23417;BME280;11881;42.432;25.632;2024-01-16T07:27:25;98252.31;;;8.28;93.24
23417;BME280;11881;42.432;25.632;2024-01-16T07:29:51;98263.31;;;8.33;91.12
23417;BME280;11881;42.432;25.632;2024-01-16T07:32:16;98260.78;;;8.41;90.06
23417;BME280;11881;42.432;25.632;2024-01-16T07:34:42;98267.38;;;8.55;89.02
23417;BME280;11881;42.432;25.632;2024-01-16T07:37:07;98269.81;;;8.84;89.45
23417;BME280;11881;42.432;25.632;2024-01-16T07:39:33;98265.88;;;8.88;87.04
23417;BME280;11881;42.432;25.632;2024-01-16T07:41:58;98269.13;;;9.00;84.13
23417;BME280;11881;42.432;25.632;2024-01-16T07:44:24;98283.63;;;8.88;82.68
23417;BME280;11881;42.432;25.632;2024-01-16T07:46:50;98295.28;;;9.13;81.12
23417;BME280;11881;42.432;25.632;2024-01-16T07:49:15;98284.41;;;9.24;80.21
23417;BME280;11881;42.432;25.632;2024-01-16T07:51:42;98296.97;;;8.96;79.08
23417;BME280;11881;42.432;25.632;2024-01-16T07:54:11;98307.44;;;8.97;78.73
23417;BME280;11881;42.432;25.632;2024-01-16T07:56:38;98310.25;;;8.78;79.98
23417;BME280;11881;42.432;25.632;2024-01-16T07:59:04;98303.72;;;8.90;78.97
23417;BME280;11881;42.432;25.632;2024-01-16T08:01:29;98312.78;;;8.52;79.05
23417;BME280;11881;42.432;25.632;2024-01-16T08:03:55;98327.22;;;8.49;78.48
23417;BME280;11881;42.432;25.632;2024-01-16T08:06:22;98344.38;;;8.73;77.94
23417;BME280;11881;42.432;25.632;2024-01-16T08:08:48;98340.97;;;8.63;78.46
23417;BME280;11881;42.432;25.632;2024-01-16T08:11:14;98354.31;;;8.53;78.02
23417;BME280;11881;42.432;25.632;2024-01-16T08:13:40;98370.72;;;8.84;77.00
23417;BME280;11881;42.432;25.632;2024-01-16T08:16:05;98369.13;;;8.73;77.12
23417;BME280;11881;42.432;25.632;2024-01-16T08:18:31;98381.50;;;8.83;76.97
23417;BME280;11881;42.432;25.632;2024-01-16T08:20:57;98384.84;;;8.85;76.03
23417;BME280;11881;42.432;25.632;2024-01-16T08:23:23;98391.75;;;8.77;75.73
23417;BME280;11881;42.432;25.632;2024-01-16T08:25:48;98398.97;;;8.85;77.25
23417;BME280;11881;42.432;25.632;2024-01-16T08:28:14;98410.31;;;9.05;76.19
23417;BME280;11881;42.432;25.632;2024-01-16T08:30:40;98413.97;;;8.76;75.74
23417;BME280;11881;42.432;25.632;2024-01-16T08:33:06;98419.97;;;8.78;75.26
23417;BME280;11881;42.432;25.632;2024-01-16T08:35:32;98427.56;;;8.91;74.95
23417;BME280;11881;42.432;25.632;2024-01-16T08:37:58;98432.25;;;9.07;75.23
23417;BME280;11881;42.432;25.632;2024-01-16T08:40:24;98436.06;;;9.40;72.89
23417;BME280;11881;42.432;25.632;2024-01-16T08:42:49;98438.53;;;9.77;72.86
23417;BME280;11881;42.432;25.632;2024-01-16T08:45:20;98448.47;;;9.93;71.27
23417;BME280;11881;42.432;25.632;2024-01-16T08:47:46;98437.91;;;9.83;70.27
23417;BME280;11881;42.432;25.632;2024-01-16T08:50:12;98445.59;;;9.86;69.81
23417;BME280;11881;42.432;25.632;2024-01-16T08:52:37;98436.09;;;10.10;69.54
23417;BME280;11881;42.432;25.632;2024-01-16T08:55:03;98439.81;;;10.17;69.08
23417;BME280;11881;42.432;25.632;2024-01-16T08:57:29;98442.25;;;10.10;68.15
23417;BME280;11881;42.432;25.632;2024-01-16T08:59:55;98447.34;;;9.78;68.27
23417;BME280;11881;42.432;25.632;2024-01-16T09:02:20;98444.09;;;9.48;68.38
23417;BME280;11881;42.432;25.632;2024-01-16T09:04:47;98446.91;;;9.29;69.17
23417;BME280;11881;42.432;25.632;2024-01-16T09:07:13;98454.72;;;9.13;69.77
23417;BME280;11881;42.432;25.632;2024-01-16T09:09:41;98466.41;;;9.55;68.29
23417;BME280;11881;42.432;25.632;2024-01-16T09:12:10;98460.19;;;9.65;67.92
23417;BME280;11881;42.432;25.632;2024-01-16T09:14:36;98484.50;;;9.70;67.77
23417;BME280;11881;42.432;25.632;2024-01-16T09:17:01;98491.78;;;9.68;67.97
23417;BME280;11881;42.432;25.632;2024-01-16T09:19:28;98500.00;;;9.92;66.24
23417;BME280;11881;42.432;25.632;2024-01-16T09:21:54;98497.38;;;10.18;65.18
23417;BME280;11881;42.432;25.632;2024-01-16T09:24:20;98513.34;;;10.18;64.97
23417;BME280;11881;42.432;25.632;2024-01-16T09:26:46;98510.38;;;10.21;64.73
23417;BME280;11881;42.432;25.632;2024-01-16T09:29:11;98511.34;;;10.20;64.23
23417;BME280;11881;42.432;25.632;2024-01-16T09:31:37;98516.34;;;10.41;63.05
23417;BME280;11881;42.432;25.632;2024-01-16T09:34:03;98517.44;;;10.30;62.63
23417;BME280;11881;42.432;25.632;2024-01-16T09:36:29;98511.03;;;10.67;62.41
23417;BME280;11881;42.432;25.632;2024-01-16T09:38:54;98512.50;;;10.35;62.09
23417;BME280;11881;42.432;25.632;2024-01-16T09:41:20;98513.63;;;10.59;61.59
23417;BME280;11881;42.432;25.632;2024-01-16T09:43:47;98524.75;;;10.54;60.25
23417;BME280;11881;42.432;25.632;2024-01-16T09:46:14;98522.16;;;10.62;60.77
23417;BME280;11881;42.432;25.632;2024-01-16T09:48:41;98526.47;;;10.63;60.95
23417;BME280;11881;42.432;25.632;2024-01-16T09:51:10;98526.63;;;10.36;60.74
23417;BME280;11881;42.432;25.632;2024-01-16T09:53:40;98518.66;;;10.62;61.27
23417;BME280;11881;42.432;25.632;2024-01-16T09:56:12;98529.69;;;10.67;61.27
23417;BME280;11881;42.432;25.632;2024-01-16T09:58:39;98528.03;;;10.74;59.60
23417;BME280;11881;42.432;25.632;2024-01-16T10:01:05;98531.78;;;10.89;59.60
23417;BME280;11881;42.432;25.632;2024-01-16T10:03:31;98538.84;;;11.07;58.84
23417;BME280;11881;42.432;25.632;2024-01-16T10:06:03;98552.78;;;11.27;57.51
23417;BME280;11881;42.432;25.632;2024-01-16T10:08:30;98564.38;;;11.09;57.89
23417;BME280;11881;42.432;25.632;2024-01-16T10:10:57;98542.97;;;10.93;58.16
23417;BME280;11881;42.432;25.632;2024-01-16T10:13:23;98557.22;;;11.18;57.90
23417;BME280;11881;42.432;25.632;2024-01-16T10:15:51;98556.66;;;11.06;57.08
23417;BME280;11881;42.432;25.632;2024-01-16T10:18:30;98564.09;;;10.95;56.61
23417;BME280;11881;42.432;25.632;2024-01-16T10:20:56;98569.13;;;10.98;55.29
23417;BME280;11881;42.432;25.632;2024-01-16T10:23:32;98567.94;;;11.26;55.46
23417;BME280;11881;42.432;25.632;2024-01-16T10:26:06;98559.31;;;11.40;55.03
23417;BME280;11881;42.432;25.632;2024-01-16T10:28:37;98574.91;;;11.69;52.17
23417;BME280;11881;42.432;25.632;2024-01-16T10:31:11;98566.59;;;11.30;51.31
23417;BME280;11881;42.432;25.632;2024-01-16T10:33:37;98561.78;;;11.34;51.38
23417;BME280;11881;42.432;25.632;2024-01-16T10:36:13;98576.13;;;11.33;49.45
23417;BME280;11881;42.432;25.632;2024-01-16T10:38:43;98578.06;;;11.23;49.86
23417;BME280;11881;42.432;25.632;2024-01-16T10:41:10;98572.72;;;11.14;49.05
23417;BME280;11881;42.432;25.632;2024-01-16T10:43:36;98572.63;;;11.40;49.22
23417;BME280;11881;42.432;25.632;2024-01-16T10:48:39;98588.34;;;11.52;49.57
23417;BME280;11881;42.432;25.632;2024-01-16T10:51:15;98597.53;;;11.57;48.90
23417;BME280;11881;42.432;25.632;2024-01-16T10:53:45;98593.72;;;11.60;47.91
23417;BME280;11881;42.432;25.632;2024-01-16T10:56:12;98598.72;;;11.63;48.06
23417;BME280;11881;42.432;25.632;2024-01-16T10:58:41;98601.81;;;11.84;47.92
23417;BME280;11881;42.432;25.632;2024-01-16T11:01:11;98603.97;;;11.38;48.27
23417;BME280;11881;42.432;25.632;2024-01-16T11:03:46;98588.97;;;11.37;48.03
23417;BME280;11881;42.432;25.632;2024-01-16T11:06:15;98603.44;;;11.35;48.67
23417;BME280;11881;42.432;25.632;2024-01-16T11:08:41;98596.41;;;11.60;48.26
23417;BME280;11881;42.432;25.632;2024-01-16T11:11:08;98588.75;;;11.73;48.67
23417;BME280;11881;42.432;25.632;2024-01-16T11:13:34;98593.50;;;11.53;48.02
23417;BME280;11881;42.432;25.632;2024-01-16T11:16:02;98602.91;;;11.65;50.32
23417;BME280;11881;42.432;25.632;2024-01-16T11:18:30;98617.69;;;11.52;49.98
23417;BME280;11881;42.432;25.632;2024-01-16T11:20:57;98601.09;;;11.66;49.78
23417;BME280;11881;42.432;25.632;2024-01-16T11:23:24;98606.75;;;11.71;50.19
23417;BME280;11881;42.432;25.632;2024-01-16T11:25:49;98606.50;;;11.98;49.86
23417;BME280;11881;42.432;25.632;2024-01-16T11:28:15;98600.88;;;12.34;49.55
23417;BME280;11881;42.432;25.632;2024-01-16T11:30:42;98617.06;;;12.33;48.04
23417;BME280;11881;42.432;25.632;2024-01-16T11:35:58;98623.56;;;12.46;48.59
23417;BME280;11881;42.432;25.632;2024-01-16T11:38:25;98629.72;;;12.22;47.96
23417;BME280;11881;42.432;25.632;2024-01-16T11:40:55;98621.88;;;11.96;48.56
23417;BME280;11881;42.432;25.632;2024-01-16T11:46:02;98625.81;;;11.42;47.92
23417;BME280;11881;42.432;25.632;2024-01-16T11:48:28;98635.88;;;11.48;47.22
23417;BME280;11881;42.432;25.632;2024-01-16T11:50:54;98634.31;;;11.37;47.68
23417;BME280;11881;42.432;25.632;2024-01-16T11:53:38;98637.25;;;11.60;47.78
23417;BME280;11881;42.432;25.632;2024-01-16T12:01:26;98653.81;;;11.80;47.47
23417;BME280;11881;42.432;25.632;2024-01-16T12:04:21;98645.78;;;11.72;46.51
23417;BME280;11881;42.432;25.632;2024-01-16T12:06:57;98657.31;;;11.38;46.89
23417;BME280;11881;42.432;25.632;2024-01-16T12:09:26;98656.41;;;11.56;47.22
23417;BME280;11881;42.432;25.632;2024-01-16T12:12:02;98657.31;;;11.38;47.23
23417;BME280;11881;42.432;25.632;2024-01-16T12:14:28;98641.41;;;11.21;46.76
23417;BME280;11881;42.432;25.632;2024-01-16T12:17:13;98653.91;;;11.20;46.91
23417;BME280;11881;42.432;25.632;2024-01-16T12:19:39;98658.31;;;11.37;46.72
23417;BME280;11881;42.432;25.632;2024-01-16T12:22:09;98658.97;;;11.31;46.92
23417;BME280;11881;42.432;25.632;2024-01-16T12:24:36;98666.22;;;11.21;46.60
23417;BME280;11881;42.432;25.632;2024-01-16T12:27:01;98673.03;;;11.15;46.50
23417;BME280;11881;42.432;25.632;2024-01-16T12:29:27;98673.31;;;11.12;46.07
23417;BME280;11881;42.432;25.632;2024-01-16T12:32:05;98685.69;;;11.13;45.68
23417;BME280;11881;42.432;25.632;2024-01-16T12:34:31;98682.53;;;11.18;46.10
23417;BME280;11881;42.432;25.632;2024-01-16T12:37:06;98696.06;;;11.25;45.78
23417;BME280;11881;42.432;25.632;2024-01-16T12:39:33;98702.25;;;11.25;47.15
23417;BME280;11881;42.432;25.632;2024-01-16T12:42:01;98701.56;;;11.23;46.83
23417;BME280;11881;42.432;25.632;2024-01-16T12:44:29;98696.69;;;11.44;47.42
23417;BME280;11881;42.432;25.632;2024-01-16T12:46:56;98696.78;;;11.35;46.14
23417;BME280;11881;42.432;25.632;2024-01-16T12:49:23;98705.41;;;11.29;46.72
23417;BME280;11881;42.432;25.632;2024-01-16T12:51:48;98713.84;;;11.16;46.61
23417;BME280;11881;42.432;25.632;2024-01-16T12:54:15;98726.81;;;11.11;46.35
23417;BME280;11881;42.432;25.632;2024-01-16T12:56:41;98726.44;;;11.06;46.70
23417;BME280;11881;42.432;25.632;2024-01-16T12:59:11;98735.38;;;10.97;46.30
23417;BME280;11881;42.432;25.632;2024-01-16T13:01:49;98745.13;;;10.88;46.56
23417;BME280;11881;42.432;25.632;2024-01-16T13:04:16;98738.50;;;10.92;46.54